Time;durP1;ratioP1;P1;durP2;ratioP2;P2;SDS_P1;SDS_P2;PMS_P1;PMS_P2;Temp;Humidity;BMP_temperature;BMP_pressure;BME280_temperature;BME280_humidity;BME280_pressure;Samples;Min_cycle;Max_cycle;Signal;HPM_P1;HPM_P2
2021/10/15 00:00:20;;;;;;;14.23;2.80;;;12.70;99.90;;;;;;5032551;28;20205;-65
2021/10/15 00:02:46;;;;;;;20.05;4.03;;;12.40;99.90;;;;;;5031585;28;20044;-66
2021/10/15 00:05:12;;;;;;;21.17;3.38;;;12.10;99.90;;;;;;5033725;28;20197;-67
2021/10/15 00:07:38;;;;;;;17.48;2.88;;;12.10;99.90;;;;;;5014001;28;20333;-66
2021/10/15 00:10:05;;;;;;;18.23;3.28;;;12.00;99.90;;;;;;5034444;28;20029;-67
2021/10/15 00:12:31;;;;;;;15.65;2.60;;;12.00;99.90;;;;;;5032726;28;20033;-67
2021/10/15 00:14:57;;;;;;;16.73;2.78;;;12.00;99.90;;;;;;5033343;28;20032;-67
2021/10/15 00:17:23;;;;;;;14.50;2.92;;;12.00;99.90;;;;;;5032760;28;20037;-67
2021/10/15 00:19:49;;;;;;;9.98;2.10;;;11.90;99.90;;;;;;5031977;28;20212;-67
2021/10/15 00:22:15;;;;;;;14.68;2.58;;;11.90;99.90;;;;;;5029825;28;20378;-66
2021/10/15 00:24:41;;;;;;;11.52;2.40;;;11.80;99.90;;;;;;5033109;28;20034;-65
2021/10/15 00:27:06;;;;;;;10.38;2.33;;;11.80;99.90;;;;;;5034626;28;20104;-66
2021/10/15 00:29:32;;;;;;;14.07;2.60;;;11.80;99.90;;;;;;5033052;28;20030;-67
2021/10/15 00:31:59;;;;;;;11.75;2.05;;;11.80;99.90;;;;;;5029235;28;20029;-67
2021/10/15 00:34:25;;;;;;;14.00;2.45;;;11.80;99.90;;;;;;5032360;28;20433;-68
2021/10/15 00:36:51;;;;;;;14.07;2.38;;;11.80;99.90;;;;;;5032679;28;20032;-67
2021/10/15 00:39:17;;;;;;;16.30;2.42;;;11.80;99.90;;;;;;5030600;28;20122;-66
2021/10/15 00:41:43;;;;;;;13.98;2.35;;;11.80;99.90;;;;;;5030788;28;20037;-66
2021/10/15 00:44:11;;;;;;;20.52;3.47;;;11.80;99.90;;;;;;5032693;28;20411;-66
2021/10/15 00:46:40;;;;;;;16.08;2.80;;;11.80;99.90;;;;;;5029316;28;20445;-67
2021/10/15 00:49:08;;;;;;;19.98;3.00;;;11.80;99.90;;;;;;5032029;28;20040;-67
2021/10/15 00:51:34;;;;;;;17.88;2.75;;;11.80;99.90;;;;;;5031301;28;20036;-66
2021/10/15 00:54:02;;;;;;;12.07;2.38;;;11.80;99.90;;;;;;5032174;28;20259;-66
2021/10/15 00:56:28;;;;;;;16.85;2.55;;;11.80;99.90;;;;;;5031520;28;20071;-66
2021/10/15 00:58:55;;;;;;;15.25;3.83;;;11.80;99.90;;;;;;5031929;28;20029;-65
2021/10/15 01:01:21;;;;;;;20.90;3.05;;;11.80;99.90;;;;;;5032350;28;20033;-65
2021/10/15 01:03:47;;;;;;;23.55;3.80;;;11.80;99.90;;;;;;5032392;28;20045;-65
2021/10/15 01:06:14;;;;;;;17.13;2.60;;;11.80;99.90;;;;;;5030314;28;20387;-66
2021/10/15 01:08:47;;;;;;;20.30;2.35;;;11.80;99.90;;;;;;5032628;28;20339;-65
2021/10/15 01:11:14;;;;;;;14.35;2.30;;;11.80;99.90;;;;;;5032416;28;20045;-66
2021/10/15 01:13:40;;;;;;;12.68;2.80;;;11.90;99.90;;;;;;5032440;28;20057;-65
2021/10/15 01:16:10;;;;;;;16.63;3.08;;;11.80;99.90;;;;;;5031134;28;22214;-64
2021/10/15 01:18:36;;;;;;;12.27;2.15;;;11.80;99.90;;;;;;5031595;28;20025;-65
2021/10/15 01:21:04;;;;;;;13.07;2.78;;;11.80;99.90;;;;;;5031905;28;20376;-65
2021/10/15 01:23:30;;;;;;;16.27;2.60;;;11.80;99.90;;;;;;5031579;28;20371;-65
2021/10/15 01:25:56;;;;;;;17.60;2.88;;;11.80;99.90;;;;;;5030419;28;20339;-66
2021/10/15 01:28:24;;;;;;;20.55;2.97;;;11.80;99.90;;;;;;5031455;28;20037;-65
2021/10/15 01:30:50;;;;;;;19.88;2.80;;;11.80;99.90;;;;;;5030548;28;20271;-66
2021/10/15 01:33:17;;;;;;;16.77;2.60;;;11.80;99.90;;;;;;5031993;28;20158;-66
2021/10/15 01:35:43;;;;;;;11.13;2.05;;;11.80;99.90;;;;;;5031722;28;20032;-65
2021/10/15 01:38:10;;;;;;;17.83;2.35;;;11.70;99.90;;;;;;5030278;28;20303;-66
2021/10/15 01:40:36;;;;;;;13.65;3.15;;;11.70;99.90;;;;;;5031384;28;20037;-65
2021/10/15 01:43:02;;;;;;;14.18;3.17;;;11.70;99.90;;;;;;5031416;28;20141;-65
2021/10/15 01:45:32;;;;;;;17.15;2.20;;;11.70;99.90;;;;;;5031341;28;20231;-66
2021/10/15 01:47:59;;;;;;;23.17;3.25;;;11.60;99.90;;;;;;5031161;28;20270;-66
2021/10/15 01:50:27;;;;;;;23.08;2.75;;;11.60;99.90;;;;;;5029307;28;20033;-65
2021/10/15 01:52:53;;;;;;;9.45;1.80;;;11.40;99.90;;;;;;5030202;28;20026;-66
2021/10/15 01:55:20;;;;;;;13.63;2.25;;;11.30;99.90;;;;;;5032011;28;20351;-66
2021/10/15 01:57:46;;;;;;;11.88;2.22;;;11.30;99.90;;;;;;5030981;28;20033;-66
2021/10/15 02:00:14;;;;;;;12.00;1.95;;;11.20;99.90;;;;;;5030470;28;20025;-66
2021/10/15 02:02:41;;;;;;;11.98;1.98;;;11.30;99.90;;;;;;5031057;28;20111;-66
2021/10/15 02:05:09;;;;;;;8.70;1.77;;;11.20;99.90;;;;;;5030104;28;20033;-65
2021/10/15 02:07:35;;;;;;;18.05;3.00;;;11.20;99.90;;;;;;5031796;28;20044;-66
2021/10/15 02:10:02;;;;;;;18.52;2.08;;;11.10;99.90;;;;;;5031128;28;20257;-65
2021/10/15 02:12:28;;;;;;;15.65;2.60;;;11.20;99.90;;;;;;5030317;28;20025;-67
2021/10/15 02:14:53;;;;;;;19.23;2.75;;;11.10;99.90;;;;;;5030642;28;20026;-66
2021/10/15 02:17:19;;;;;;;15.10;2.47;;;11.20;99.90;;;;;;5031835;28;20254;-65
2021/10/15 02:19:45;;;;;;;20.60;4.00;;;11.20;99.90;;;;;;5013245;28;20401;-66
2021/10/15 02:22:11;;;;;;;18.98;3.13;;;11.20;99.90;;;;;;5030124;28;20112;-66
2021/10/15 02:24:37;;;;;;;14.80;3.25;;;11.20;99.90;;;;;;5029547;28;20025;-65
2021/10/15 02:27:03;;;;;;;18.10;3.35;;;11.20;99.90;;;;;;5030959;28;20037;-66
2021/10/15 02:29:29;;;;;;;22.63;3.15;;;11.10;99.90;;;;;;5030212;28;20052;-66
2021/10/15 02:31:55;;;;;;;16.40;2.35;;;11.10;99.90;;;;;;5030715;28;20029;-65
2021/10/15 02:34:21;;;;;;;15.77;3.38;;;11.20;99.90;;;;;;5030392;28;20033;-66
2021/10/15 02:36:47;;;;;;;14.57;2.33;;;11.10;99.90;;;;;;5012303;28;20029;-65
2021/10/15 02:39:14;;;;;;;17.00;2.83;;;11.10;99.90;;;;;;5030325;28;20068;-66
2021/10/15 02:41:40;;;;;;;14.73;2.80;;;11.00;99.90;;;;;;5029017;28;20025;-65
2021/10/15 02:44:09;;;;;;;16.17;2.78;;;11.00;99.90;;;;;;5029377;28;20041;-65
2021/10/15 02:46:36;;;;;;;11.37;1.83;;;11.00;99.90;;;;;;5029500;28;20060;-66
2021/10/15 02:49:02;;;;;;;9.18;1.85;;;11.00;99.90;;;;;;5029193;28;20097;-66
2021/10/15 02:51:28;;;;;;;11.20;2.08;;;11.00;99.90;;;;;;5029652;28;20021;-66
2021/10/15 02:53:54;;;;;;;12.00;1.65;;;10.90;99.90;;;;;;5029667;28;20080;-66
2021/10/15 02:56:20;;;;;;;13.50;1.92;;;10.90;99.90;;;;;;5029994;28;20279;-66
2021/10/15 02:58:46;;;;;;;11.90;2.00;;;10.90;99.90;;;;;;5029756;28;20024;-65
2021/10/15 03:01:11;;;;;;;15.98;2.45;;;10.90;99.90;;;;;;5030829;28;20033;-65
2021/10/15 03:03:37;;;;;;;16.33;2.92;;;10.90;99.90;;;;;;5035006;28;20335;-66
2021/10/15 03:06:03;;;;;;;21.38;2.80;;;11.00;99.90;;;;;;5034694;28;20029;-66
2021/10/15 03:08:29;;;;;;;13.88;2.50;;;10.90;99.90;;;;;;5017542;28;20030;-66
2021/10/15 03:10:55;;;;;;;13.15;2.15;;;10.90;99.90;;;;;;5034088;28;20314;-66
2021/10/15 03:13:21;;;;;;;13.75;2.13;;;10.90;99.90;;;;;;5032809;28;20365;-66
2021/10/15 03:15:47;;;;;;;8.13;1.75;;;10.90;99.90;;;;;;5033050;28;20025;-65
2021/10/15 03:18:13;;;;;;;22.58;3.47;;;10.90;99.90;;;;;;5034574;28;20037;-65
2021/10/15 03:20:39;;;;;;;15.77;2.35;;;10.90;99.90;;;;;;5034423;28;20025;-65
2021/10/15 03:23:05;;;;;;;15.48;2.10;;;10.90;99.90;;;;;;5033590;28;20056;-66
2021/10/15 03:25:31;;;;;;;11.90;2.08;;;10.90;99.90;;;;;;5033573;28;20053;-66
2021/10/15 03:27:57;;;;;;;20.33;3.47;;;10.90;99.90;;;;;;5034085;28;20038;-66
2021/10/15 03:30:23;;;;;;;14.07;2.47;;;10.90;99.90;;;;;;5034402;28;20025;-65
2021/10/15 03:32:48;;;;;;;17.60;2.08;;;10.90;99.90;;;;;;5033982;28;20089;-65
2021/10/15 03:35:14;;;;;;;20.13;2.42;;;10.90;99.90;;;;;;5033096;28;20041;-66
2021/10/15 03:37:40;;;;;;;22.73;3.00;;;10.90;99.90;;;;;;5033988;28;20025;-66
2021/10/15 03:40:07;;;;;;;14.02;2.15;;;10.90;99.90;;;;;;5032873;28;20338;-65
2021/10/15 03:42:33;;;;;;;16.33;2.70;;;10.90;99.90;;;;;;5033441;28;20357;-65
2021/10/15 03:44:59;;;;;;;14.23;2.47;;;10.90;99.90;;;;;;5033411;28;20039;-66
2021/10/15 03:47:25;;;;;;;23.70;3.47;;;10.80;99.90;;;;;;5033727;28;20278;-66
2021/10/15 03:49:51;;;;;;;19.80;2.75;;;10.80;99.90;;;;;;5032486;28;20240;-65
2021/10/15 03:52:17;;;;;;;18.73;3.17;;;10.80;99.90;;;;;;5031767;28;20251;-65
2021/10/15 03:54:43;;;;;;;21.77;3.00;;;10.80;99.90;;;;;;5033314;28;20033;-66
2021/10/15 03:57:08;;;;;;;19.90;2.75;;;10.80;99.90;;;;;;5030998;28;20546;-65
2021/10/15 03:59:34;;;;;;;15.77;3.17;;;10.70;99.90;;;;;;5030878;28;20356;-65
2021/10/15 04:02:00;;;;;;;12.70;2.85;;;10.70;99.90;;;;;;5031256;28;20108;-66
2021/10/15 04:04:28;;;;;;;14.15;3.40;;;10.70;99.90;;;;;;5031285;28;20044;-65
2021/10/15 04:06:55;;;;;;;22.27;4.07;;;10.70;99.90;;;;;;5032686;28;20084;-65
2021/10/15 04:09:21;;;;;;;17.60;4.10;;;10.70;99.90;;;;;;5029544;28;20460;-65
2021/10/15 04:11:47;;;;;;;21.45;3.65;;;10.70;99.90;;;;;;5030941;28;20295;-66
2021/10/15 04:14:13;;;;;;;22.90;3.88;;;10.70;99.90;;;;;;5028812;28;20362;-66
2021/10/15 04:16:39;;;;;;;22.50;4.50;;;10.60;99.90;;;;;;5029065;28;20032;-65
2021/10/15 04:19:05;;;;;;;22.15;3.83;;;10.60;99.90;;;;;;5031712;28;20063;-65
2021/10/15 04:21:31;;;;;;;17.63;3.28;;;10.60;99.90;;;;;;5029679;28;20244;-66
2021/10/15 04:23:57;;;;;;;16.63;3.17;;;10.60;99.90;;;;;;5033004;28;20072;-65
2021/10/15 04:26:23;;;;;;;22.38;3.97;;;10.60;99.90;;;;;;5032983;28;20056;-66
2021/10/15 04:28:48;;;;;;;28.90;4.15;;;10.60;99.90;;;;;;5033272;28;20031;-65
2021/10/15 04:31:14;;;;;;;17.65;4.05;;;10.60;99.90;;;;;;5032470;28;20096;-65
2021/10/15 04:33:43;;;;;;;15.88;3.45;;;10.60;99.90;;;;;;5032379;28;20029;-66
2021/10/15 04:36:09;;;;;;;14.65;3.25;;;10.60;99.90;;;;;;5030860;28;20216;-65
2021/10/15 04:38:35;;;;;;;14.15;3.13;;;10.50;99.90;;;;;;5029281;28;20049;-65
2021/10/15 04:41:01;;;;;;;17.10;2.65;;;10.50;99.90;;;;;;5032109;28;20025;-65
2021/10/15 04:43:27;;;;;;;18.27;3.35;;;10.50;99.90;;;;;;5031660;28;20305;-65
2021/10/15 04:45:53;;;;;;;18.02;2.95;;;10.40;99.90;;;;;;5031924;28;20040;-65
2021/10/15 04:48:18;;;;;;;13.85;2.30;;;10.50;99.90;;;;;;5029166;28;20037;-65
2021/10/15 04:50:44;;;;;;;20.33;3.30;;;10.40;99.90;;;;;;5029455;28;20032;-79
2021/10/15 04:53:10;;;;;;;17.08;3.17;;;10.50;99.90;;;;;;5035879;28;20045;-78
2021/10/15 04:55:36;;;;;;;19.15;3.05;;;10.50;99.90;;;;;;5036106;28;20033;-78
2021/10/15 04:58:03;;;;;;;12.73;3.45;;;10.50;99.90;;;;;;5038633;28;20212;-79
2021/10/15 05:00:31;;;;;;;15.45;2.85;;;10.50;99.90;;;;;;5040437;28;20051;-80
2021/10/15 05:02:57;;;;;;;25.48;4.75;;;10.50;99.90;;;;;;5038367;28;20120;-80
2021/10/15 05:05:33;;;;;;;18.70;4.00;;;10.50;99.90;;;;;;5036114;28;20033;-79
2021/10/15 05:07:59;;;;;;;22.38;3.75;;;10.50;99.90;;;;;;5036224;28;20033;-79
2021/10/15 05:10:28;;;;;;;21.55;3.38;;;10.50;99.90;;;;;;5034360;28;20032;-79
2021/10/15 05:12:55;;;;;;;18.90;3.28;;;10.50;99.90;;;;;;5036604;28;20029;-79
2021/10/15 05:15:21;;;;;;;18.23;3.92;;;10.40;99.90;;;;;;5038465;28;20039;-80
2021/10/15 05:17:47;;;;;;;18.60;3.33;;;10.40;99.90;;;;;;5041963;28;20315;-79
2021/10/15 05:20:16;;;;;;;23.35;4.35;;;10.40;99.90;;;;;;5043746;28;20401;-79
2021/10/15 05:22:45;;;;;;;23.15;5.55;;;10.30;99.90;;;;;;5038892;28;20263;-78
2021/10/15 05:25:12;;;;;;;21.75;5.55;;;10.40;99.90;;;;;;5039112;28;20099;-79
2021/10/15 05:27:38;;;;;;;24.15;5.65;;;10.40;99.90;;;;;;5036625;28;20033;-79
2021/10/15 05:30:07;;;;;;;20.15;3.20;;;10.50;99.90;;;;;;5042018;28;20026;-78
2021/10/15 05:32:34;;;;;;;15.07;2.88;;;10.60;99.90;;;;;;5038153;28;20053;-80
2021/10/15 05:35:00;;;;;;;20.60;4.10;;;10.60;99.90;;;;;;5041125;28;20240;-80
2021/10/15 05:37:26;;;;;;;21.13;3.70;;;10.50;99.90;;;;;;5032161;28;20048;-73
2021/10/15 05:39:52;;;;;;;13.23;3.13;;;10.50;99.90;;;;;;5009233;28;20048;-74
2021/10/15 05:42:18;;;;;;;13.27;3.22;;;10.40;99.90;;;;;;5027526;28;20044;-75
2021/10/15 05:44:43;;;;;;;21.92;4.18;;;10.40;99.90;;;;;;5027071;28;20224;-74
2021/10/15 05:47:10;;;;;;;25.45;4.25;;;10.40;99.90;;;;;;5027393;28;20079;-74
2021/10/15 05:49:39;;;;;;;16.55;2.75;;;10.50;99.90;;;;;;5029213;28;20029;-74
2021/10/15 05:52:11;;;;;;;12.03;2.40;;;10.50;99.90;;;;;;5030299;28;20037;-74
2021/10/15 05:59:44;;;;;;;7.30;1.70;;;10.30;99.90;;;;;;5027805;28;20021;-74
2021/10/15 06:02:10;;;;;;;13.52;2.63;;;10.20;99.90;;;;;;5029598;28;20102;-74
2021/10/15 06:15:36;;;;;;;19.30;2.75;;;10.00;99.90;;;;;;5032312;28;20305;-73
2021/10/15 06:18:11;;;;;;;21.25;4.07;;;10.00;99.90;;;;;;5027764;28;20049;-73
2021/10/15 06:20:38;;;;;;;21.75;3.60;;;10.00;99.90;;;;;;5006101;28;20033;-74
2021/10/15 06:23:04;;;;;;;17.90;3.50;;;10.10;99.90;;;;;;5031148;28;20099;-74
2021/10/15 06:25:31;;;;;;;19.98;2.92;;;10.20;99.90;;;;;;5027711;28;20387;-74
2021/10/15 06:27:59;;;;;;;12.85;2.17;;;10.30;99.90;;;;;;5029209;28;20033;-74
2021/10/15 06:30:26;;;;;;;13.52;2.63;;;10.30;99.90;;;;;;5026239;28;20029;-74
2021/10/15 06:32:52;;;;;;;27.45;4.05;;;10.30;99.90;;;;;;5031789;28;20053;-74
2021/10/15 06:35:19;;;;;;;13.35;2.75;;;10.40;99.90;;;;;;5031275;28;20102;-74
2021/10/15 06:37:44;;;;;;;17.65;2.83;;;10.40;99.90;;;;;;5030099;28;20030;-74
2021/10/15 06:40:11;;;;;;;21.30;3.30;;;10.50;99.90;;;;;;5032017;28;20030;-73
2021/10/15 06:42:37;;;;;;;23.77;3.70;;;10.60;99.90;;;;;;5029335;28;20037;-74
2021/10/15 06:45:04;;;;;;;15.23;3.15;;;10.70;99.90;;;;;;5031620;28;20336;-74
2021/10/15 06:47:30;;;;;;;26.05;3.38;;;10.80;99.90;;;;;;5028910;28;20055;-73
2021/10/15 06:49:56;;;;;;;21.55;4.32;;;10.80;99.90;;;;;;5031185;28;20025;-74
2021/10/15 06:52:23;;;;;;;24.08;4.18;;;10.70;99.90;;;;;;5013305;28;20028;-74
2021/10/15 06:54:48;;;;;;;20.70;3.63;;;10.70;99.90;;;;;;5031201;28;20030;-74
2021/10/15 06:57:14;;;;;;;18.95;3.75;;;10.70;99.90;;;;;;5031613;28;20088;-74
2021/10/15 06:59:40;;;;;;;19.95;3.97;;;10.60;99.90;;;;;;5031439;28;20025;-73
2021/10/15 07:02:07;;;;;;;22.42;3.45;;;10.60;99.90;;;;;;5031100;28;20422;-73
2021/10/15 07:04:33;;;;;;;20.10;3.72;;;10.60;99.90;;;;;;5029271;28;20041;-74
2021/10/15 07:07:00;;;;;;;22.20;3.53;;;10.70;99.90;;;;;;5029061;28;20443;-74
2021/10/15 07:09:26;;;;;;;22.30;3.65;;;10.70;99.90;;;;;;5030524;28;20079;-74
2021/10/15 07:11:52;;;;;;;17.02;3.50;;;10.90;99.90;;;;;;5030780;28;20029;-74
2021/10/15 07:14:18;;;;;;;17.63;3.85;;;11.00;99.90;;;;;;5030434;28;20340;-74
2021/10/15 07:16:44;;;;;;;24.42;4.50;;;11.10;99.90;;;;;;5031338;28;20051;-74
2021/10/15 07:19:10;;;;;;;24.58;4.75;;;11.40;99.90;;;;;;5031725;28;20021;-75
2021/10/15 07:21:37;;;;;;;16.80;3.75;;;11.80;99.90;;;;;;5029676;28;20259;-74
2021/10/15 07:24:03;;;;;;;20.70;4.85;;;12.00;99.90;;;;;;5031418;28;20121;-75
2021/10/15 07:26:29;;;;;;;20.75;3.95;;;12.30;99.90;;;;;;5028996;28;20092;-74
2021/10/15 07:28:55;;;;;;;25.33;4.38;;;12.30;99.90;;;;;;5030735;28;20378;-74
2021/10/15 07:31:21;;;;;;;30.60;4.63;;;12.30;99.90;;;;;;5031211;28;20124;-75
2021/10/15 07:33:50;;;;;;;32.53;5.22;;;12.40;99.90;;;;;;5031042;28;20299;-75
2021/10/15 07:36:16;;;;;;;22.60;3.97;;;12.50;99.90;;;;;;5030517;28;20033;-76
2021/10/15 07:38:42;;;;;;;18.83;3.28;;;12.80;99.90;;;;;;5030688;28;20031;-75
2021/10/15 07:41:08;;;;;;;21.52;4.40;;;12.90;99.90;;;;;;5031598;28;20239;-75
2021/10/15 07:43:35;;;;;;;18.25;3.78;;;12.60;99.90;;;;;;5028610;28;20482;-75
2021/10/15 07:46:01;;;;;;;23.45;4.13;;;12.40;99.90;;;;;;5031173;28;20258;-74
2021/10/15 07:48:27;;;;;;;26.45;4.35;;;12.60;99.90;;;;;;5030225;28;20037;-75
2021/10/15 07:50:53;;;;;;;27.33;4.53;;;12.90;99.90;;;;;;5035296;28;20088;-75
2021/10/15 07:53:19;;;;;;;27.80;5.28;;;13.20;99.90;;;;;;5033647;28;20029;-75
2021/10/15 07:55:45;;;;;;;25.33;4.18;;;13.50;99.90;;;;;;5034040;28;20030;-75
2021/10/15 07:58:11;;;;;;;24.17;4.65;;;13.60;99.90;;;;;;5034374;28;20028;-75
2021/10/15 08:00:38;;;;;;;26.63;5.13;;;13.80;99.90;;;;;;5034394;28;20022;-74
2021/10/15 08:03:05;;;;;;;17.98;4.13;;;14.00;99.90;;;;;;5034005;28;20049;-75
2021/10/15 08:05:31;;;;;;;25.48;5.45;;;14.00;99.90;;;;;;5034357;28;20319;-74
2021/10/15 08:07:57;;;;;;;18.85;4.10;;;13.90;99.90;;;;;;5034919;28;20286;-74
2021/10/15 08:10:24;;;;;;;28.55;5.20;;;13.60;99.90;;;;;;5032309;28;20031;-74
2021/10/15 08:12:49;;;;;;;27.33;5.03;;;13.50;99.90;;;;;;5029481;28;20353;-74
2021/10/15 08:15:16;;;;;;;25.80;5.07;;;13.60;99.90;;;;;;5034442;28;20087;-74
2021/10/15 08:17:46;;;;;;;20.20;3.85;;;13.80;99.90;;;;;;5034292;28;20111;-74
2021/10/15 08:20:14;;;;;;;25.60;4.68;;;14.10;99.90;;;;;;5033740;28;20021;-75
2021/10/15 08:22:40;;;;;;;14.45;3.67;;;14.30;99.90;;;;;;5033225;28;20282;-74
2021/10/15 08:25:07;;;;;;;17.98;3.22;;;14.60;99.90;;;;;;5033828;28;20029;-75
2021/10/15 08:27:33;;;;;;;25.70;3.63;;;14.50;99.90;;;;;;5032282;28;20277;-75
2021/10/15 08:29:59;;;;;;;18.55;4.13;;;14.70;99.90;;;;;;5032544;28;20053;-75
2021/10/15 08:32:26;;;;;;;20.10;4.25;;;14.90;99.90;;;;;;5033019;28;20083;-74
2021/10/15 08:34:52;;;;;;;18.45;3.78;;;15.00;99.90;;;;;;5033865;28;20034;-75
2021/10/15 08:37:17;;;;;;;22.88;3.92;;;15.30;99.90;;;;;;5034573;28;20030;-75
2021/10/15 08:39:43;;;;;;;17.77;3.78;;;15.20;99.90;;;;;;5033708;28;20099;-74
2021/10/15 08:42:10;;;;;;;15.85;3.50;;;14.80;99.90;;;;;;5031987;28;20040;-74
2021/10/15 08:44:38;;;;;;;16.42;3.83;;;14.50;99.90;;;;;;5016470;28;20036;-75
2021/10/15 08:47:05;;;;;;;24.58;5.07;;;14.70;99.90;;;;;;5033127;28;20422;-75
2021/10/15 08:49:31;;;;;;;29.48;4.43;;;15.10;99.90;;;;;;5033030;28;20090;-76
2021/10/15 08:51:57;;;;;;;29.80;4.68;;;15.30;99.90;;;;;;5032959;28;20051;-74
2021/10/15 08:54:22;;;;;;;24.08;5.13;;;15.60;99.90;;;;;;5033464;28;20227;-74
2021/10/15 08:56:48;;;;;;;20.20;4.20;;;15.20;99.90;;;;;;5033536;28;20057;-74
2021/10/15 08:59:19;;;;;;;19.00;4.22;;;15.00;99.90;;;;;;5033048;28;20033;-75
2021/10/15 09:01:48;;;;;;;17.35;4.05;;;15.20;99.90;;;;;;5033407;28;20022;-74
2021/10/15 09:04:19;;;;;;;20.73;4.03;;;15.50;99.90;;;;;;5033634;28;20296;-74
2021/10/15 09:06:48;;;;;;;20.77;4.07;;;15.70;99.90;;;;;;5031835;28;20035;-74
2021/10/15 09:09:25;;;;;;;21.23;4.95;;;15.10;99.90;;;;;;5032068;28;20029;-74
2021/10/15 09:11:51;;;;;;;27.13;4.57;;;15.20;99.90;;;;;;5033173;28;20199;-73
2021/10/15 09:14:26;;;;;;;19.75;3.53;;;15.30;99.90;;;;;;5032717;28;20295;-74
2021/10/15 09:16:53;;;;;;;22.65;4.28;;;15.00;99.90;;;;;;5032528;28;20271;-74
2021/10/15 09:19:29;;;;;;;20.13;4.28;;;14.40;99.90;;;;;;5032803;28;20341;-74
2021/10/15 09:22:10;;;;;;;22.63;4.72;;;13.90;99.90;;;;;;5032440;28;20044;-73
2021/10/15 09:24:42;;;;;;;21.23;4.68;;;13.80;99.90;;;;;;5032659;28;20120;-75
2021/10/15 09:27:32;;;;;;;21.67;4.45;;;14.40;99.90;;;;;;5032969;28;20029;-73
2021/10/15 09:30:07;;;;;;;23.20;4.95;;;15.30;99.90;;;;;;5014574;28;20100;-73
2021/10/15 09:32:46;;;;;;;23.33;4.95;;;15.90;99.90;;;;;;5030068;28;20331;-73
2021/10/15 09:35:27;;;;;;;17.05;3.45;;;16.00;99.90;;;;;;5015071;28;20287;-74
2021/10/15 09:37:59;;;;;;;17.08;3.78;;;16.40;99.90;;;;;;5032606;28;20074;-74
2021/10/15 09:40:26;;;;;;;18.45;3.90;;;16.70;99.90;;;;;;5032360;28;20283;-74
2021/10/15 09:43:00;;;;;;;16.27;3.20;;;16.80;99.90;;;;;;5032639;28;20362;-73
2021/10/15 09:45:33;;;;;;;21.55;4.35;;;16.70;99.90;;;;;;5031818;28;20037;-74
2021/10/15 09:48:01;;;;;;;18.10;3.58;;;16.80;99.90;;;;;;5032824;28;20036;-74
2021/10/15 09:50:35;;;;;;;20.58;4.45;;;17.00;99.90;;;;;;5031808;28;20386;-73
2021/10/15 09:53:04;;;;;;;19.38;4.57;;;17.00;99.90;;;;;;5032327;28;20422;-74
2021/10/15 09:55:36;;;;;;;16.35;4.25;;;16.90;99.90;;;;;;5031236;28;20074;-73
2021/10/15 09:58:19;;;;;;;17.83;3.53;;;16.70;99.90;;;;;;5032801;28;20032;-73
2021/10/15 10:00:47;;;;;;;17.63;3.53;;;16.60;99.90;;;;;;5031717;28;20036;-72
2021/10/15 10:03:17;;;;;;;18.70;4.15;;;16.40;99.90;;;;;;5032549;28;20126;-73
2021/10/15 10:05:43;;;;;;;22.67;5.53;;;15.80;99.90;;;;;;5031296;28;20180;-73
2021/10/15 10:08:12;;;;;;;18.95;4.03;;;15.30;99.90;;;;;;5032203;28;20111;-72
2021/10/15 10:10:40;;;;;;;14.57;3.73;;;14.90;99.90;;;;;;5030188;28;20033;-72
2021/10/15 10:13:07;;;;;;;26.23;3.55;;;14.80;99.90;;;;;;5013453;28;20051;-72
2021/10/15 10:15:37;;;;;;;17.90;3.67;;;14.90;99.90;;;;;;5030951;28;20040;-73
2021/10/15 10:18:17;;;;;;;;;;;15.30;99.90;;;;;;5027410;28;20119;-73
2021/10/15 10:20:53;;;;;;;20.20;4.13;;;15.50;99.90;;;;;;5028068;28;19917;-72
2021/10/15 10:23:31;;;;;;;14.75;3.65;;;16.10;99.90;;;;;;5032474;28;20055;-73
2021/10/15 10:26:02;;;;;;;15.77;3.67;;;16.60;99.90;;;;;;5031511;28;20331;-73
2021/10/15 10:28:29;;;;;;;19.30;3.92;;;17.20;99.90;;;;;;5031618;28;20035;-73
2021/10/15 10:31:05;;;;;;;19.40;4.57;;;17.50;99.90;;;;;;5029636;28;20021;-73
2021/10/15 10:33:49;;;;;;;20.13;3.72;;;17.80;99.90;;;;;;5030594;28;20135;-71
2021/10/15 10:36:15;;;;;;;19.80;4.90;;;17.90;99.90;;;;;;5028624;28;20060;-72
2021/10/15 10:38:41;;;;;;;18.73;4.40;;;17.80;99.90;;;;;;5026234;28;20026;-71
2021/10/15 10:41:07;;;;;;;22.88;4.65;;;17.80;99.90;;;;;;5030453;28;20125;-71
2021/10/15 10:43:44;;;;;;;17.55;4.15;;;17.80;99.90;;;;;;5029334;28;20328;-71
2021/10/15 10:46:18;;;;;;;20.80;4.78;;;18.00;99.90;;;;;;5028801;28;20271;-72
2021/10/15 10:48:50;;;;;;;19.58;4.18;;;18.10;99.90;;;;;;5026055;28;20348;-74
2021/10/15 10:51:22;;;;;;;24.48;4.50;;;18.20;99.90;;;;;;5030600;28;20041;-74
2021/10/15 10:54:06;;;;;;;16.80;4.57;;;17.90;99.90;;;;;;5031026;28;20036;-73
2021/10/15 10:56:48;;;;;;;19.25;4.57;;;17.50;99.90;;;;;;5031194;28;20036;-74
2021/10/15 10:59:20;;;;;;;21.05;4.25;;;17.60;99.90;;;;;;5031952;28;20036;-73
2021/10/15 11:02:03;;;;;;;18.48;3.63;;;17.60;99.90;;;;;;5030738;28;20021;-73
2021/10/15 11:04:32;;;;;;;18.50;4.05;;;17.60;99.90;;;;;;5030137;28;20052;-73
2021/10/15 11:06:59;;;;;;;18.88;3.70;;;17.30;99.90;;;;;;5029472;28;20299;-73
2021/10/15 11:09:29;;;;;;;20.02;3.88;;;17.50;99.90;;;;;;5029001;28;20060;-71
2021/10/15 11:11:55;;;;;;;22.88;4.68;;;17.90;99.90;;;;;;5030002;28;20339;-71
2021/10/15 11:14:41;;;;;;;22.33;3.53;;;18.10;99.90;;;;;;5031660;28;20077;-70
2021/10/15 11:17:11;;;;;;;19.77;3.78;;;18.40;99.90;;;;;;5028284;28;20272;-70
2021/10/15 11:19:37;;;;;;;16.95;4.32;;;18.20;99.90;;;;;;5010333;28;20029;-77
2021/10/15 11:22:03;;;;;;;28.48;5.60;;;18.20;99.90;;;;;;5027596;28;20052;-76
2021/10/15 11:24:29;;;;;;;22.25;4.07;;;18.10;99.90;;;;;;5031671;28;20037;-76
2021/10/15 11:26:55;;;;;;;21.67;4.47;;;18.40;99.90;;;;;;5030238;28;20029;-74
2021/10/15 11:29:21;;;;;;;21.83;4.78;;;17.90;99.90;;;;;;5032947;28;20079;-75
2021/10/15 11:31:58;;;;;;;23.67;3.97;;;16.90;99.90;;;;;;5033014;28;20021;-76
2021/10/15 11:34:24;;;;;;;17.80;4.38;;;16.00;99.90;;;;;;5030618;28;20200;-73
2021/10/15 11:37:04;;;;;;;18.48;3.97;;;16.00;99.90;;;;;;5032592;28;20032;-71
2021/10/15 11:39:30;;;;;;;22.98;4.30;;;16.60;99.90;;;;;;5028463;28;20029;-71
2021/10/15 11:41:56;;;;;;;18.90;4.20;;;16.90;99.90;;;;;;5031434;28;20036;-72
2021/10/15 11:44:37;;;;;;;24.70;4.63;;;17.10;99.90;;;;;;5030187;28;20295;-72
2021/10/15 11:47:09;;;;;;;19.48;4.97;;;17.30;99.90;;;;;;5032575;28;20041;-71
2021/10/15 11:49:39;;;;;;;20.80;4.20;;;17.40;99.90;;;;;;5033596;28;20422;-71
2021/10/15 11:52:05;;;;;;;19.50;4.57;;;17.80;99.90;;;;;;5032976;28;20036;-71
2021/10/15 11:54:31;;;;;;;17.23;4.95;;;18.30;99.90;;;;;;5028696;28;20029;-70
2021/10/15 11:56:57;;;;;;;19.52;4.72;;;18.20;99.90;;;;;;5033568;28;20340;-71
2021/10/15 11:59:25;;;;;;;20.60;4.95;;;17.80;99.90;;;;;;5031715;28;20028;-70
2021/10/15 12:01:51;;;;;;;21.60;4.20;;;17.40;99.90;;;;;;5031682;28;20316;-70
2021/10/15 12:04:17;;;;;;;18.38;3.95;;;17.50;99.90;;;;;;5031597;28;20040;-71
2021/10/15 12:06:49;;;;;;;16.95;4.10;;;17.80;99.60;;;;;;5030668;28;20036;-71
2021/10/15 12:09:21;;;;;;;16.63;3.25;;;18.00;99.40;;;;;;5030036;28;20269;-71
2021/10/15 12:11:53;;;;;;;16.02;3.38;;;18.00;98.20;;;;;;5029832;28;20025;-71
2021/10/15 12:14:29;;;;;;;17.67;3.83;;;17.90;99.80;;;;;;5031728;28;20026;-71
2021/10/15 12:17:00;;;;;;;19.50;3.97;;;17.80;99.10;;;;;;5014429;28;20098;-72
2021/10/15 12:19:32;;;;;;;17.25;4.38;;;17.80;98.30;;;;;;5029407;28;20021;-70
2021/10/15 12:22:03;;;;;;;20.98;4.07;;;17.80;98.80;;;;;;5032384;28;20087;-71
2021/10/15 12:24:36;;;;;;;14.32;3.92;;;18.00;98.70;;;;;;5007794;28;20029;-71
2021/10/15 12:27:13;;;;;;;14.15;3.92;;;17.70;98.20;;;;;;5027639;28;20036;-71
2021/10/15 12:29:58;;;;;;;17.00;4.25;;;17.60;98.20;;;;;;5032153;28;20386;-71
2021/10/15 12:32:38;;;;;;;15.25;3.95;;;17.70;98.60;;;;;;5031502;28;20038;-71
2021/10/15 12:35:03;;;;;;;;;;;17.20;99.40;;;;;;5031288;28;20025;-71
2021/10/15 12:37:43;;;;;;;18.08;4.68;;;17.10;99.70;;;;;;5030570;28;19988;-72
2021/10/15 12:40:21;;;;;;;19.13;4.05;;;17.30;99.70;;;;;;5016143;28;20045;-72
2021/10/15 12:42:54;;;;;;;19.10;4.68;;;17.50;99.00;;;;;;5029495;28;20377;-72
2021/10/15 12:45:21;;;;;;;20.85;4.40;;;17.60;99.10;;;;;;5032029;28;20316;-72
2021/10/15 12:48:23;;;;;;;21.23;4.60;;;17.70;99.20;;;;;;5030426;28;20026;-72
2021/10/15 12:51:15;;;;;;;20.10;4.45;;;17.30;99.10;;;;;;4933025;29;20043;-73
2021/10/15 12:53:49;;;;;;;19.88;4.93;;;17.60;99.50;;;;;;5023803;28;20049;-72
2021/10/15 12:56:18;;;;;;;20.60;4.43;;;17.70;98.80;;;;;;5031623;28;20052;-73
2021/10/15 12:58:55;;;;;;;27.77;5.00;;;17.60;98.00;;;;;;5029521;28;20120;-73